TAF Text Data
IDs:
Format:
Raw Decoded Include METAR

Data at: 0153 UTC 29 May 2022

KTUP 282320Z 2900/2924 20003KT P6SM SKC
  FM291500 20007KT P6SM SKC